Terminal Aerodrome Forecast
Issued by NWS

Home | Current Version | Previous Version | Text Only | Print | Product List | Glossary On
Versions: 1 2 3 4 5 6 7 8 9 10 11 12 13 14 15 16 17 18 19 20 21 22 23 24 25 26 27 28 29 30 31 32 33 34
000
FTUS45 KBYZ 302113 AAA
TAFLVM
TAF AMD
KLVM 302113Z 3021/3118 31019G23KT P6SM VCSH BKN100
     FM310300 28012KT P6SM FEW080 SCT220
     FM311200 25021G29KT P6SM SCT100=

USA.gov is the U.S. government's official web portal to all federal, state and local government web resources and services.